sensor_id;sensor_type;location;lat;lon;timestamp;P1;durP1;ratioP1;P2;durP2;ratioP2
60336;SDS011;46978;50.288;28.624;2022-12-13T00:00:59;40.96;;;21.55;;
60336;SDS011;46978;50.288;28.624;2022-12-13T00:02:00;37.55;;;21.25;;
60336;SDS011;46978;50.288;28.624;2022-12-13T00:03:02;37.03;;;20.02;;
60336;SDS011;46978;50.288;28.624;2022-12-13T00:04:05;41.57;;;21.26;;
60336;SDS011;46978;50.288;28.624;2022-12-13T00:05:08;39.38;;;19.96;;
60336;SDS011;46978;50.288;28.624;2022-12-13T00:06:11;36.71;;;20.03;;
60336;SDS011;46978;50.288;28.624;2022-12-13T00:07:13;41.39;;;20.65;;
60336;SDS011;46978;50.288;28.624;2022-12-13T00:08:14;38.71;;;20.43;;
60336;SDS011;46978;50.288;28.624;2022-12-13T00:09:16;38.56;;;20.56;;
60336;SDS011;46978;50.288;28.624;2022-12-13T00:10:20;38.39;;;20.42;;
60336;SDS011;46978;50.288;28.624;2022-12-13T00:11:21;36.08;;;19.74;;
60336;SDS011;46978;50.288;28.624;2022-12-13T00:12:23;36.45;;;19.53;;
60336;SDS011;46978;50.288;28.624;2022-12-13T00:13:25;36.70;;;20.46;;
60336;SDS011;46978;50.288;28.624;2022-12-13T00:14:27;37.84;;;20.68;;
60336;SDS011;46978;50.288;28.624;2022-12-13T00:15:28;36.89;;;20.36;;
60336;SDS011;46978;50.288;28.624;2022-12-13T00:16:30;36.55;;;19.79;;
60336;SDS011;46978;50.288;28.624;2022-12-13T00:17:32;33.74;;;19.54;;
60336;SDS011;46978;50.288;28.624;2022-12-13T00:18:34;35.49;;;19.83;;
60336;SDS011;46978;50.288;28.624;2022-12-13T00:19:36;37.56;;;19.74;;
60336;SDS011;46978;50.288;28.624;2022-12-13T00:20:38;37.17;;;19.65;;
60336;SDS011;46978;50.288;28.624;2022-12-13T00:21:40;37.31;;;20.04;;
60336;SDS011;46978;50.288;28.624;2022-12-13T00:22:42;38.83;;;19.95;;
60336;SDS011;46978;50.288;28.624;2022-12-13T00:23:44;37.98;;;20.24;;
60336;SDS011;46978;50.288;28.624;2022-12-13T00:24:46;37.65;;;19.20;;
60336;SDS011;46978;50.288;28.624;2022-12-13T00:25:48;37.31;;;19.82;;
60336;SDS011;46978;50.288;28.624;2022-12-13T00:26:52;36.39;;;20.15;;
60336;SDS011;46978;50.288;28.624;2022-12-13T00:27:54;35.24;;;19.78;;
60336;SDS011;46978;50.288;28.624;2022-12-13T00:29:00;37.01;;;19.57;;
60336;SDS011;46978;50.288;28.624;2022-12-13T00:30:03;37.63;;;19.86;;
60336;SDS011;46978;50.288;28.624;2022-12-13T00:31:06;39.27;;;20.77;;
60336;SDS011;46978;50.288;28.624;2022-12-13T00:32:09;38.08;;;20.07;;
60336;SDS011;46978;50.288;28.624;2022-12-13T00:33:10;36.34;;;19.51;;
60336;SDS011;46978;50.288;28.624;2022-12-13T00:34:12;33.67;;;19.43;;
60336;SDS011;46978;50.288;28.624;2022-12-13T00:35:14;33.35;;;19.83;;
60336;SDS011;46978;50.288;28.624;2022-12-13T00:36:16;34.21;;;18.93;;
60336;SDS011;46978;50.288;28.624;2022-12-13T00:37:18;34.05;;;19.11;;
60336;SDS011;46978;50.288;28.624;2022-12-13T00:38:20;34.86;;;18.94;;
60336;SDS011;46978;50.288;28.624;2022-12-13T00:39:22;34.51;;;18.96;;
60336;SDS011;46978;50.288;28.624;2022-12-13T00:40:26;33.97;;;19.07;;
60336;SDS011;46978;50.288;28.624;2022-12-13T00:41:30;31.83;;;18.14;;
60336;SDS011;46978;50.288;28.624;2022-12-13T00:42:33;35.32;;;19.05;;
60336;SDS011;46978;50.288;28.624;2022-12-13T00:43:35;35.98;;;18.38;;
60336;SDS011;46978;50.288;28.624;2022-12-13T00:44:37;32.62;;;18.11;;
60336;SDS011;46978;50.288;28.624;2022-12-13T00:45:38;31.26;;;17.96;;
60336;SDS011;46978;50.288;28.624;2022-12-13T00:46:41;33.24;;;18.39;;
60336;SDS011;46978;50.288;28.624;2022-12-13T00:47:44;30.69;;;17.86;;
60336;SDS011;46978;50.288;28.624;2022-12-13T00:48:53;32.11;;;17.71;;
60336;SDS011;46978;50.288;28.624;2022-12-13T00:50:59;30.14;;;16.05;;
60336;SDS011;46978;50.288;28.624;2022-12-13T00:52:03;30.79;;;17.20;;
60336;SDS011;46978;50.288;28.624;2022-12-13T00:53:05;33.57;;;17.59;;
60336;SDS011;46978;50.288;28.624;2022-12-13T00:54:07;31.59;;;17.20;;
60336;SDS011;46978;50.288;28.624;2022-12-13T00:55:10;31.98;;;18.03;;
60336;SDS011;46978;50.288;28.624;2022-12-13T00:56:14;30.72;;;16.32;;
60336;SDS011;46978;50.288;28.624;2022-12-13T00:57:18;29.22;;;17.43;;
60336;SDS011;46978;50.288;28.624;2022-12-13T00:58:19;33.46;;;17.76;;
60336;SDS011;46978;50.288;28.624;2022-12-13T00:59:21;29.24;;;16.52;;
60336;SDS011;46978;50.288;28.624;2022-12-13T01:00:23;28.19;;;16.39;;
60336;SDS011;46978;50.288;28.624;2022-12-13T01:01:26;31.24;;;17.31;;
60336;SDS011;46978;50.288;28.624;2022-12-13T01:02:30;29.09;;;16.76;;
60336;SDS011;46978;50.288;28.624;2022-12-13T01:03:32;29.94;;;16.10;;
60336;SDS011;46978;50.288;28.624;2022-12-13T01:04:34;30.99;;;15.67;;
60336;SDS011;46978;50.288;28.624;2022-12-13T01:05:35;30.28;;;17.01;;
60336;SDS011;46978;50.288;28.624;2022-12-13T01:06:42;28.16;;;15.91;;
60336;SDS011;46978;50.288;28.624;2022-12-13T01:07:45;31.15;;;16.15;;
60336;SDS011;46978;50.288;28.624;2022-12-13T01:08:47;29.91;;;16.14;;
60336;SDS011;46978;50.288;28.624;2022-12-13T01:09:49;26.85;;;15.48;;
60336;SDS011;46978;50.288;28.624;2022-12-13T01:10:50;27.61;;;15.53;;
60336;SDS011;46978;50.288;28.624;2022-12-13T01:11:55;28.52;;;15.24;;
60336;SDS011;46978;50.288;28.624;2022-12-13T01:13:00;25.85;;;14.35;;
60336;SDS011;46978;50.288;28.624;2022-12-13T01:14:01;27.30;;;14.34;;
60336;SDS011;46978;50.288;28.624;2022-12-13T01:15:04;25.79;;;14.64;;
60336;SDS011;46978;50.288;28.624;2022-12-13T01:16:08;24.96;;;14.02;;
60336;SDS011;46978;50.288;28.624;2022-12-13T01:17:11;23.77;;;13.98;;
60336;SDS011;46978;50.288;28.624;2022-12-13T01:18:13;27.33;;;14.68;;
60336;SDS011;46978;50.288;28.624;2022-12-13T01:19:15;24.89;;;13.73;;
60336;SDS011;46978;50.288;28.624;2022-12-13T01:20:17;23.82;;;13.61;;
60336;SDS011;46978;50.288;28.624;2022-12-13T01:21:19;25.17;;;14.12;;
60336;SDS011;46978;50.288;28.624;2022-12-13T01:22:21;24.03;;;14.07;;
60336;SDS011;46978;50.288;28.624;2022-12-13T01:23:23;23.83;;;14.52;;
60336;SDS011;46978;50.288;28.624;2022-12-13T01:24:25;24.85;;;15.03;;
60336;SDS011;46978;50.288;28.624;2022-12-13T01:25:27;25.14;;;14.26;;
60336;SDS011;46978;50.288;28.624;2022-12-13T01:26:28;24.24;;;13.61;;
60336;SDS011;46978;50.288;28.624;2022-12-13T01:27:31;26.09;;;15.05;;
60336;SDS011;46978;50.288;28.624;2022-12-13T01:28:32;24.32;;;13.78;;
60336;SDS011;46978;50.288;28.624;2022-12-13T01:29:34;26.53;;;13.71;;
60336;SDS011;46978;50.288;28.624;2022-12-13T01:30:36;25.59;;;14.22;;
60336;SDS011;46978;50.288;28.624;2022-12-13T01:31:37;24.78;;;14.06;;
60336;SDS011;46978;50.288;28.624;2022-12-13T01:32:39;25.31;;;14.91;;
60336;SDS011;46978;50.288;28.624;2022-12-13T01:33:41;28.53;;;14.53;;
60336;SDS011;46978;50.288;28.624;2022-12-13T01:34:43;24.63;;;13.99;;
60336;SDS011;46978;50.288;28.624;2022-12-13T01:35:45;28.13;;;15.62;;
60336;SDS011;46978;50.288;28.624;2022-12-13T01:36:46;24.75;;;14.30;;
60336;SDS011;46978;50.288;28.624;2022-12-13T01:37:49;24.52;;;14.01;;
60336;SDS011;46978;50.288;28.624;2022-12-13T01:38:50;25.77;;;14.45;;
60336;SDS011;46978;50.288;28.624;2022-12-13T01:39:52;25.22;;;14.13;;
60336;SDS011;46978;50.288;28.624;2022-12-13T01:40:54;26.71;;;14.98;;
60336;SDS011;46978;50.288;28.624;2022-12-13T01:41:56;22.95;;;13.53;;
60336;SDS011;46978;50.288;28.624;2022-12-13T01:42:57;23.16;;;14.78;;
60336;SDS011;46978;50.288;28.624;2022-12-13T01:44:00;24.35;;;14.39;;
60336;SDS011;46978;50.288;28.624;2022-12-13T01:46:24;25.02;;;13.77;;
60336;SDS011;46978;50.288;28.624;2022-12-13T01:47:41;28.02;;;14.44;;
60336;SDS011;46978;50.288;28.624;2022-12-13T01:48:48;24.44;;;13.69;;
60336;SDS011;46978;50.288;28.624;2022-12-13T01:50:08;28.14;;;15.22;;
60336;SDS011;46978;50.288;28.624;2022-12-13T01:51:13;28.80;;;15.27;;
60336;SDS011;46978;50.288;28.624;2022-12-13T01:52:17;24.40;;;14.17;;
60336;SDS011;46978;50.288;28.624;2022-12-13T01:53:21;28.05;;;16.15;;
60336;SDS011;46978;50.288;28.624;2022-12-13T01:54:27;26.69;;;14.52;;
60336;SDS011;46978;50.288;28.624;2022-12-13T01:55:30;27.06;;;14.71;;
60336;SDS011;46978;50.288;28.624;2022-12-13T01:56:37;26.54;;;15.01;;
60336;SDS011;46978;50.288;28.624;2022-12-13T01:57:41;26.43;;;14.22;;
60336;SDS011;46978;50.288;28.624;2022-12-13T01:58:46;25.65;;;14.22;;
60336;SDS011;46978;50.288;28.624;2022-12-13T01:59:50;25.47;;;13.64;;
60336;SDS011;46978;50.288;28.624;2022-12-13T02:00:55;24.56;;;13.67;;
60336;SDS011;46978;50.288;28.624;2022-12-13T02:01:59;23.23;;;12.94;;
60336;SDS011;46978;50.288;28.624;2022-12-13T02:03:01;23.05;;;13.43;;
60336;SDS011;46978;50.288;28.624;2022-12-13T02:04:06;22.55;;;12.58;;
60336;SDS011;46978;50.288;28.624;2022-12-13T02:05:09;23.56;;;13.14;;
60336;SDS011;46978;50.288;28.624;2022-12-13T02:06:34;22.27;;;12.52;;
60336;SDS011;46978;50.288;28.624;2022-12-13T02:07:37;23.57;;;12.83;;
60336;SDS011;46978;50.288;28.624;2022-12-13T02:08:43;23.05;;;12.86;;
60336;SDS011;46978;50.288;28.624;2022-12-13T02:09:45;20.79;;;12.82;;
60336;SDS011;46978;50.288;28.624;2022-12-13T02:10:47;22.05;;;12.28;;
60336;SDS011;46978;50.288;28.624;2022-12-13T02:11:49;23.21;;;12.73;;
60336;SDS011;46978;50.288;28.624;2022-12-13T02:12:52;22.07;;;12.66;;
60336;SDS011;46978;50.288;28.624;2022-12-13T02:13:53;21.83;;;12.76;;
60336;SDS011;46978;50.288;28.624;2022-12-13T02:14:55;22.00;;;11.74;;
60336;SDS011;46978;50.288;28.624;2022-12-13T02:16:49;22.35;;;12.51;;
60336;SDS011;46978;50.288;28.624;2022-12-13T02:21:32;20.45;;;11.49;;
60336;SDS011;46978;50.288;28.624;2022-12-13T02:24:04;22.65;;;12.67;;
60336;SDS011;46978;50.288;28.624;2022-12-13T02:31:30;22.32;;;12.36;;
60336;SDS011;46978;50.288;28.624;2022-12-13T02:32:36;25.12;;;13.10;;
60336;SDS011;46978;50.288;28.624;2022-12-13T02:35:10;19.34;;;11.37;;
60336;SDS011;46978;50.288;28.624;2022-12-13T02:37:58;22.54;;;11.77;;
60336;SDS011;46978;50.288;28.624;2022-12-13T02:42:44;21.72;;;11.42;;
60336;SDS011;46978;50.288;28.624;2022-12-13T02:43:46;18.91;;;11.08;;
60336;SDS011;46978;50.288;28.624;2022-12-13T02:44:51;20.18;;;11.53;;
60336;SDS011;46978;50.288;28.624;2022-12-13T02:46:01;21.04;;;12.14;;
60336;SDS011;46978;50.288;28.624;2022-12-13T02:47:16;19.89;;;11.48;;
60336;SDS011;46978;50.288;28.624;2022-12-13T02:48:18;19.66;;;11.48;;
60336;SDS011;46978;50.288;28.624;2022-12-13T02:49:21;21.82;;;12.15;;
60336;SDS011;46978;50.288;28.624;2022-12-13T02:50:26;20.74;;;11.68;;
60336;SDS011;46978;50.288;28.624;2022-12-13T02:51:28;18.57;;;11.37;;
60336;SDS011;46978;50.288;28.624;2022-12-13T02:52:32;18.29;;;11.03;;
60336;SDS011;46978;50.288;28.624;2022-12-13T02:53:35;20.45;;;12.20;;
60336;SDS011;46978;50.288;28.624;2022-12-13T02:54:39;20.15;;;11.73;;
60336;SDS011;46978;50.288;28.624;2022-12-13T02:55:41;20.66;;;11.87;;
60336;SDS011;46978;50.288;28.624;2022-12-13T02:56:52;18.81;;;11.20;;
60336;SDS011;46978;50.288;28.624;2022-12-13T02:57:56;19.89;;;11.39;;
60336;SDS011;46978;50.288;28.624;2022-12-13T02:58:58;20.17;;;11.28;;
60336;SDS011;46978;50.288;28.624;2022-12-13T03:00:05;20.28;;;11.62;;
60336;SDS011;46978;50.288;28.624;2022-12-13T03:03:57;19.42;;;11.72;;
60336;SDS011;46978;50.288;28.624;2022-12-13T03:07:41;21.39;;;12.22;;
60336;SDS011;46978;50.288;28.624;2022-12-13T03:10:16;21.99;;;12.49;;
60336;SDS011;46978;50.288;28.624;2022-12-13T03:11:20;22.79;;;12.88;;
60336;SDS011;46978;50.288;28.624;2022-12-13T03:12:42;25.12;;;13.25;;
60336;SDS011;46978;50.288;28.624;2022-12-13T03:14:03;23.66;;;12.43;;
60336;SDS011;46978;50.288;28.624;2022-12-13T03:17:25;26.85;;;13.73;;
60336;SDS011;46978;50.288;28.624;2022-12-13T03:18:30;23.23;;;13.56;;
60336;SDS011;46978;50.288;28.624;2022-12-13T03:19:35;24.75;;;14.05;;
60336;SDS011;46978;50.288;28.624;2022-12-13T03:20:37;25.13;;;14.17;;
60336;SDS011;46978;50.288;28.624;2022-12-13T03:21:40;24.23;;;13.19;;
60336;SDS011;46978;50.288;28.624;2022-12-13T03:22:43;22.53;;;12.68;;
60336;SDS011;46978;50.288;28.624;2022-12-13T03:23:45;24.23;;;12.96;;
60336;SDS011;46978;50.288;28.624;2022-12-13T03:24:47;20.32;;;12.18;;
60336;SDS011;46978;50.288;28.624;2022-12-13T03:25:50;22.59;;;11.74;;
60336;SDS011;46978;50.288;28.624;2022-12-13T03:26:54;21.49;;;12.04;;
60336;SDS011;46978;50.288;28.624;2022-12-13T03:27:56;21.26;;;11.65;;
60336;SDS011;46978;50.288;28.624;2022-12-13T03:28:57;21.72;;;12.18;;
60336;SDS011;46978;50.288;28.624;2022-12-13T03:29:59;23.51;;;12.41;;
60336;SDS011;46978;50.288;28.624;2022-12-13T03:31:01;24.67;;;13.01;;
60336;SDS011;46978;50.288;28.624;2022-12-13T03:32:03;21.81;;;12.78;;
60336;SDS011;46978;50.288;28.624;2022-12-13T03:33:05;20.69;;;11.85;;
60336;SDS011;46978;50.288;28.624;2022-12-13T03:34:06;22.29;;;12.35;;
60336;SDS011;46978;50.288;28.624;2022-12-13T03:35:08;23.20;;;13.32;;
60336;SDS011;46978;50.288;28.624;2022-12-13T03:36:11;25.37;;;15.07;;
60336;SDS011;46978;50.288;28.624;2022-12-13T03:37:14;27.67;;;15.56;;
60336;SDS011;46978;50.288;28.624;2022-12-13T03:38:16;29.91;;;16.15;;
60336;SDS011;46978;50.288;28.624;2022-12-13T03:39:19;23.66;;;15.00;;
60336;SDS011;46978;50.288;28.624;2022-12-13T03:40:22;24.26;;;13.70;;
60336;SDS011;46978;50.288;28.624;2022-12-13T03:41:25;26.82;;;14.53;;
60336;SDS011;46978;50.288;28.624;2022-12-13T03:42:29;24.24;;;13.61;;
60336;SDS011;46978;50.288;28.624;2022-12-13T03:43:31;22.76;;;13.81;;
60336;SDS011;46978;50.288;28.624;2022-12-13T03:44:32;20.94;;;12.25;;
60336;SDS011;46978;50.288;28.624;2022-12-13T03:45:34;23.26;;;13.01;;
60336;SDS011;46978;50.288;28.624;2022-12-13T03:46:36;22.79;;;13.25;;
60336;SDS011;46978;50.288;28.624;2022-12-13T03:47:38;23.25;;;13.44;;
60336;SDS011;46978;50.288;28.624;2022-12-13T03:48:39;24.43;;;13.22;;
60336;SDS011;46978;50.288;28.624;2022-12-13T03:49:41;24.49;;;13.49;;
60336;SDS011;46978;50.288;28.624;2022-12-13T03:50:43;24.14;;;13.43;;
60336;SDS011;46978;50.288;28.624;2022-12-13T03:51:45;22.57;;;12.40;;
60336;SDS011;46978;50.288;28.624;2022-12-13T03:52:46;24.59;;;13.01;;
60336;SDS011;46978;50.288;28.624;2022-12-13T03:53:48;24.58;;;13.31;;
60336;SDS011;46978;50.288;28.624;2022-12-13T03:54:49;21.26;;;11.19;;
60336;SDS011;46978;50.288;28.624;2022-12-13T03:55:51;22.91;;;12.34;;
60336;SDS011;46978;50.288;28.624;2022-12-13T03:56:53;20.81;;;12.75;;
60336;SDS011;46978;50.288;28.624;2022-12-13T03:57:55;19.85;;;11.74;;
60336;SDS011;46978;50.288;28.624;2022-12-13T03:58:57;18.90;;;11.03;;
60336;SDS011;46978;50.288;28.624;2022-12-13T03:59:58;18.95;;;11.96;;
60336;SDS011;46978;50.288;28.624;2022-12-13T04:01:00;20.43;;;11.74;;
60336;SDS011;46978;50.288;28.624;2022-12-13T04:02:01;21.54;;;12.39;;
60336;SDS011;46978;50.288;28.624;2022-12-13T04:03:03;20.94;;;11.41;;
60336;SDS011;46978;50.288;28.624;2022-12-13T04:04:05;18.46;;;10.96;;
60336;SDS011;46978;50.288;28.624;2022-12-13T04:05:07;19.58;;;11.60;;
60336;SDS011;46978;50.288;28.624;2022-12-13T04:06:10;18.64;;;11.11;;
60336;SDS011;46978;50.288;28.624;2022-12-13T04:07:12;20.38;;;11.56;;
60336;SDS011;46978;50.288;28.624;2022-12-13T04:08:13;23.18;;;12.45;;
60336;SDS011;46978;50.288;28.624;2022-12-13T04:09:15;20.20;;;11.71;;
60336;SDS011;46978;50.288;28.624;2022-12-13T04:10:17;20.14;;;11.61;;
60336;SDS011;46978;50.288;28.624;2022-12-13T04:11:18;22.12;;;12.18;;
60336;SDS011;46978;50.288;28.624;2022-12-13T04:12:20;21.63;;;12.05;;
60336;SDS011;46978;50.288;28.624;2022-12-13T04:13:22;21.73;;;12.10;;
60336;SDS011;46978;50.288;28.624;2022-12-13T04:14:24;23.76;;;12.64;;
60336;SDS011;46978;50.288;28.624;2022-12-13T04:15:26;24.09;;;13.09;;
60336;SDS011;46978;50.288;28.624;2022-12-13T04:16:27;21.85;;;12.57;;
60336;SDS011;46978;50.288;28.624;2022-12-13T04:17:29;23.39;;;12.99;;
60336;SDS011;46978;50.288;28.624;2022-12-13T04:18:31;23.44;;;13.26;;
60336;SDS011;46978;50.288;28.624;2022-12-13T04:19:32;20.67;;;12.61;;
60336;SDS011;46978;50.288;28.624;2022-12-13T04:20:34;21.25;;;12.98;;
60336;SDS011;46978;50.288;28.624;2022-12-13T04:21:36;21.29;;;11.84;;
60336;SDS011;46978;50.288;28.624;2022-12-13T04:22:37;19.93;;;12.06;;
60336;SDS011;46978;50.288;28.624;2022-12-13T04:23:39;18.55;;;11.39;;
60336;SDS011;46978;50.288;28.624;2022-12-13T04:24:41;18.01;;;10.69;;
60336;SDS011;46978;50.288;28.624;2022-12-13T04:25:42;20.17;;;11.36;;
60336;SDS011;46978;50.288;28.624;2022-12-13T04:26:45;20.29;;;12.11;;
60336;SDS011;46978;50.288;28.624;2022-12-13T04:27:46;18.89;;;10.76;;
60336;SDS011;46978;50.288;28.624;2022-12-13T04:28:48;19.19;;;11.21;;
60336;SDS011;46978;50.288;28.624;2022-12-13T04:29:49;19.22;;;10.87;;
60336;SDS011;46978;50.288;28.624;2022-12-13T04:30:52;18.74;;;10.49;;
60336;SDS011;46978;50.288;28.624;2022-12-13T04:31:54;19.57;;;11.01;;
60336;SDS011;46978;50.288;28.624;2022-12-13T04:32:55;19.12;;;10.91;;
60336;SDS011;46978;50.288;28.624;2022-12-13T04:33:57;18.37;;;10.48;;
60336;SDS011;46978;50.288;28.624;2022-12-13T04:34:59;18.26;;;10.88;;
60336;SDS011;46978;50.288;28.624;2022-12-13T04:36:00;18.23;;;10.35;;
60336;SDS011;46978;50.288;28.624;2022-12-13T04:37:02;17.36;;;10.24;;
60336;SDS011;46978;50.288;28.624;2022-12-13T04:38:04;18.58;;;11.19;;
60336;SDS011;46978;50.288;28.624;2022-12-13T04:39:09;18.20;;;10.81;;
60336;SDS011;46978;50.288;28.624;2022-12-13T04:40:11;21.84;;;12.69;;
60336;SDS011;46978;50.288;28.624;2022-12-13T04:41:14;22.01;;;13.21;;
60336;SDS011;46978;50.288;28.624;2022-12-13T04:42:17;22.62;;;13.04;;
60336;SDS011;46978;50.288;28.624;2022-12-13T04:43:19;20.37;;;13.45;;
60336;SDS011;46978;50.288;28.624;2022-12-13T04:44:20;22.04;;;12.24;;
60336;SDS011;46978;50.288;28.624;2022-12-13T04:45:22;18.29;;;11.47;;
60336;SDS011;46978;50.288;28.624;2022-12-13T04:46:24;18.48;;;11.64;;
60336;SDS011;46978;50.288;28.624;2022-12-13T04:47:26;20.86;;;12.23;;
60336;SDS011;46978;50.288;28.624;2022-12-13T04:48:28;19.69;;;11.45;;
60336;SDS011;46978;50.288;28.624;2022-12-13T04:49:29;19.55;;;11.29;;
60336;SDS011;46978;50.288;28.624;2022-12-13T04:50:32;20.26;;;11.08;;
60336;SDS011;46978;50.288;28.624;2022-12-13T04:51:34;20.46;;;11.47;;
60336;SDS011;46978;50.288;28.624;2022-12-13T04:52:36;21.29;;;11.51;;
60336;SDS011;46978;50.288;28.624;2022-12-13T04:53:38;21.24;;;12.21;;
60336;SDS011;46978;50.288;28.624;2022-12-13T04:54:40;20.66;;;12.28;;
60336;SDS011;46978;50.288;28.624;2022-12-13T04:55:42;20.61;;;11.53;;
60336;SDS011;46978;50.288;28.624;2022-12-13T04:56:43;18.76;;;10.90;;
60336;SDS011;46978;50.288;28.624;2022-12-13T04:57:45;20.95;;;11.96;;
60336;SDS011;46978;50.288;28.624;2022-12-13T04:58:46;22.49;;;12.50;;
60336;SDS011;46978;50.288;28.624;2022-12-13T04:59:48;22.35;;;12.56;;
60336;SDS011;46978;50.288;28.624;2022-12-13T05:00:51;20.80;;;11.78;;
60336;SDS011;46978;50.288;28.624;2022-12-13T05:01:52;23.18;;;12.13;;
60336;SDS011;46978;50.288;28.624;2022-12-13T05:02:54;21.87;;;11.95;;
60336;SDS011;46978;50.288;28.624;2022-12-13T05:03:55;18.92;;;11.08;;
60336;SDS011;46978;50.288;28.624;2022-12-13T05:04:57;18.63;;;11.25;;
60336;SDS011;46978;50.288;28.624;2022-12-13T05:06:02;20.76;;;12.67;;
60336;SDS011;46978;50.288;28.624;2022-12-13T05:07:10;20.66;;;11.39;;
60336;SDS011;46978;50.288;28.624;2022-12-13T05:08:11;21.42;;;12.45;;
60336;SDS011;46978;50.288;28.624;2022-12-13T05:09:13;21.99;;;12.59;;
60336;SDS011;46978;50.288;28.624;2022-12-13T05:10:15;24.64;;;12.56;;
60336;SDS011;46978;50.288;28.624;2022-12-13T05:11:17;23.47;;;12.77;;
60336;SDS011;46978;50.288;28.624;2022-12-13T05:12:18;20.88;;;12.19;;
60336;SDS011;46978;50.288;28.624;2022-12-13T05:13:20;23.40;;;12.68;;
60336;SDS011;46978;50.288;28.624;2022-12-13T05:14:22;21.99;;;12.58;;
60336;SDS011;46978;50.288;28.624;2022-12-13T05:15:23;24.99;;;13.14;;
60336;SDS011;46978;50.288;28.624;2022-12-13T05:16:28;23.98;;;13.19;;
60336;SDS011;46978;50.288;28.624;2022-12-13T05:17:30;23.12;;;13.35;;
60336;SDS011;46978;50.288;28.624;2022-12-13T05:18:32;22.76;;;13.08;;
60336;SDS011;46978;50.288;28.624;2022-12-13T05:19:35;23.63;;;13.71;;
60336;SDS011;46978;50.288;28.624;2022-12-13T05:20:38;26.55;;;13.73;;
60336;SDS011;46978;50.288;28.624;2022-12-13T05:21:40;27.43;;;13.74;;
60336;SDS011;46978;50.288;28.624;2022-12-13T05:22:41;27.17;;;14.62;;
60336;SDS011;46978;50.288;28.624;2022-12-13T05:23:43;25.61;;;14.74;;
60336;SDS011;46978;50.288;28.624;2022-12-13T05:24:45;26.50;;;14.49;;
60336;SDS011;46978;50.288;28.624;2022-12-13T05:25:46;29.62;;;15.31;;
60336;SDS011;46978;50.288;28.624;2022-12-13T05:26:49;26.79;;;15.24;;
60336;SDS011;46978;50.288;28.624;2022-12-13T05:27:51;28.09;;;14.89;;
60336;SDS011;46978;50.288;28.624;2022-12-13T05:28:55;28.27;;;16.27;;
60336;SDS011;46978;50.288;28.624;2022-12-13T05:29:58;25.76;;;14.44;;
60336;SDS011;46978;50.288;28.624;2022-12-13T05:31:07;29.24;;;15.36;;
60336;SDS011;46978;50.288;28.624;2022-12-13T05:32:10;28.61;;;14.50;;
60336;SDS011;46978;50.288;28.624;2022-12-13T05:33:12;26.19;;;14.38;;
60336;SDS011;46978;50.288;28.624;2022-12-13T05:34:14;27.69;;;15.11;;
60336;SDS011;46978;50.288;28.624;2022-12-13T05:35:15;26.36;;;13.95;;
60336;SDS011;46978;50.288;28.624;2022-12-13T05:36:17;27.13;;;14.56;;
60336;SDS011;46978;50.288;28.624;2022-12-13T05:37:19;25.39;;;13.55;;
60336;SDS011;46978;50.288;28.624;2022-12-13T05:38:20;27.19;;;14.96;;
60336;SDS011;46978;50.288;28.624;2022-12-13T05:39:22;26.93;;;15.46;;
60336;SDS011;46978;50.288;28.624;2022-12-13T05:40:25;26.10;;;15.24;;
60336;SDS011;46978;50.288;28.624;2022-12-13T05:41:30;26.45;;;14.66;;
60336;SDS011;46978;50.288;28.624;2022-12-13T05:42:33;29.74;;;15.51;;
60336;SDS011;46978;50.288;28.624;2022-12-13T05:43:36;27.19;;;14.58;;
60336;SDS011;46978;50.288;28.624;2022-12-13T05:44:38;27.16;;;14.96;;
60336;SDS011;46978;50.288;28.624;2022-12-13T05:45:39;23.76;;;13.80;;
60336;SDS011;46978;50.288;28.624;2022-12-13T05:46:41;26.03;;;14.15;;
60336;SDS011;46978;50.288;28.624;2022-12-13T05:47:43;26.59;;;14.20;;
60336;SDS011;46978;50.288;28.624;2022-12-13T05:48:45;28.19;;;14.83;;
60336;SDS011;46978;50.288;28.624;2022-12-13T05:49:46;26.96;;;14.91;;
60336;SDS011;46978;50.288;28.624;2022-12-13T05:50:48;28.01;;;14.59;;
60336;SDS011;46978;50.288;28.624;2022-12-13T05:51:50;30.80;;;15.37;;
60336;SDS011;46978;50.288;28.624;2022-12-13T05:52:52;30.93;;;16.49;;
60336;SDS011;46978;50.288;28.624;2022-12-13T05:53:53;36.16;;;17.26;;
60336;SDS011;46978;50.288;28.624;2022-12-13T05:54:55;31.55;;;16.11;;
60336;SDS011;46978;50.288;28.624;2022-12-13T05:56:00;32.48;;;16.28;;
60336;SDS011;46978;50.288;28.624;2022-12-13T05:57:02;36.00;;;17.58;;
60336;SDS011;46978;50.288;28.624;2022-12-13T05:58:04;32.49;;;16.91;;
60336;SDS011;46978;50.288;28.624;2022-12-13T05:59:05;47.16;;;23.32;;
60336;SDS011;46978;50.288;28.624;2022-12-13T06:00:09;44.99;;;24.39;;
60336;SDS011;46978;50.288;28.624;2022-12-13T06:01:14;34.44;;;19.40;;
60336;SDS011;46978;50.288;28.624;2022-12-13T06:02:16;44.97;;;20.53;;
60336;SDS011;46978;50.288;28.624;2022-12-13T06:03:18;138.41;;;31.58;;
60336;SDS011;46978;50.288;28.624;2022-12-13T06:04:20;127.57;;;32.01;;
60336;SDS011;46978;50.288;28.624;2022-12-13T06:05:21;35.15;;;17.70;;
60336;SDS011;46978;50.288;28.624;2022-12-13T06:06:24;32.77;;;16.95;;
60336;SDS011;46978;50.288;28.624;2022-12-13T06:07:25;34.10;;;19.00;;
60336;SDS011;46978;50.288;28.624;2022-12-13T06:08:28;34.67;;;19.64;;
60336;SDS011;46978;50.288;28.624;2022-12-13T06:09:30;36.53;;;19.30;;
60336;SDS011;46978;50.288;28.624;2022-12-13T06:10:32;32.84;;;17.78;;
60336;SDS011;46978;50.288;28.624;2022-12-13T06:11:34;27.98;;;16.36;;
60336;SDS011;46978;50.288;28.624;2022-12-13T06:12:36;29.64;;;16.59;;
60336;SDS011;46978;50.288;28.624;2022-12-13T06:13:39;31.13;;;16.48;;
60336;SDS011;46978;50.288;28.624;2022-12-13T06:14:41;33.76;;;17.24;;
60336;SDS011;46978;50.288;28.624;2022-12-13T06:15:43;28.65;;;15.99;;
60336;SDS011;46978;50.288;28.624;2022-12-13T06:16:45;29.74;;;16.33;;
60336;SDS011;46978;50.288;28.624;2022-12-13T06:17:46;28.74;;;16.25;;
60336;SDS011;46978;50.288;28.624;2022-12-13T06:18:48;30.59;;;16.04;;
60336;SDS011;46978;50.288;28.624;2022-12-13T06:19:50;27.34;;;15.01;;
60336;SDS011;46978;50.288;28.624;2022-12-13T06:20:55;28.20;;;14.51;;
60336;SDS011;46978;50.288;28.624;2022-12-13T06:21:58;28.81;;;15.55;;
60336;SDS011;46978;50.288;28.624;2022-12-13T06:23:00;26.09;;;15.11;;
60336;SDS011;46978;50.288;28.624;2022-12-13T06:24:01;25.89;;;14.83;;
60336;SDS011;46978;50.288;28.624;2022-12-13T06:25:03;27.87;;;16.03;;
60336;SDS011;46978;50.288;28.624;2022-12-13T06:26:06;27.97;;;14.31;;
60336;SDS011;46978;50.288;28.624;2022-12-13T06:27:08;29.91;;;15.56;;
60336;SDS011;46978;50.288;28.624;2022-12-13T06:28:10;29.30;;;16.31;;
60336;SDS011;46978;50.288;28.624;2022-12-13T06:29:15;25.45;;;14.69;;
60336;SDS011;46978;50.288;28.624;2022-12-13T06:30:19;27.97;;;15.36;;
60336;SDS011;46978;50.288;28.624;2022-12-13T06:31:20;28.41;;;15.38;;
60336;SDS011;46978;50.288;28.624;2022-12-13T06:32:22;23.98;;;13.77;;
60336;SDS011;46978;50.288;28.624;2022-12-13T06:33:23;25.15;;;14.70;;